• Join FlightAware (Why Join?)
  • Login
  • US Flag 
10:40AM EDT


 

Airport Tracker/Info


-or-


 

Live Flight TrackerFlight Track Log ✈ KLM1348 ✈ 23-Apr-2014 ✈ EKBI / BLL - EHAM / AMS

Flight Track Log - Related Links

Times and Time Zones

All times are in EDT time to prevent confusion due to time zone crossing. See the KLM1348 flight status page for this flight to view local times or setup timezone preferences in your user account.

Time Position Orientation Groundspeed Altitude Reporting Facility
EDT Latitude Longitude Course Direction KTS MPH feet Rate Location/Type
12:44PM 55.4737 9.1350 216° Southwest 338 389 12,900  Level FlightAware ADS-B (EDDH / HAM)
12:45PM 55.4378 9.0898 216° Southwest 354 407 14,300 2,760 Climbing FlightAware ADS-B (EDDH / HAM)
12:46PM 55.3742 9.0089 217° Southwest 367 422 16,500 2,820 Climbing FlightAware ADS-B (EDDH / HAM)
12:46PM 55.3155 8.9314 217° Southwest 377 434 18,500 2,220 Climbing FlightAware ADS-B (EDDH / HAM)
12:48PM 55.2240 8.8122 217° Southwest 420 483 21,400 1,860 Climbing FlightAware ADS-B (EDDH / HAM)
12:50PM 55.0048 8.5302 216° Southwest 448 516 24,700 1,740 Climbing FlightAware ADS-B (EDDH / HAM)
12:50PM 54.9309 8.4360 216° Southwest 454 522 26,000 1,680 Climbing FlightAware ADS-B (EDDH / HAM)
12:51PM 54.8820 8.3731 216° Southwest 457 526 26,800 1,980 Climbing FlightAware ADS-B (EDDH / HAM)
12:52PM 54.8052 8.2771 216° Southwest 447 514 28,500 2,160 Climbing FlightAware ADS-B (EDDH / HAM)
12:52PM 54.7612 8.2204 216° Southwest 445 512 29,500 1,740 Climbing FlightAware ADS-B (EDDH / HAM)
12:53PM 54.6922 8.1349 216° Southwest 446 513 30,500 1,500 Climbing FlightAware ADS-B (EDLW / DTM)
12:53PM 54.6357 8.0636 216° Southwest 449 517 31,300 1,380 Climbing FlightAware ADS-B (EDLW / DTM)
12:54PM 54.5891 8.0049 216° Southwest 450 518 32,000 1,620 Climbing FlightAware ADS-B (EDLW / DTM)
12:54PM 54.5370 7.9404 216° Southwest 445 512 33,100 1,620 Climbing FlightAware ADS-B (EDDH / HAM)
12:55PM 54.4723 7.8597 216° Southwest 446 513 33,900 780 Climbing FlightAware ADS-B (EDLW / DTM)
12:56PM 54.4123 7.7871 216° Southwest 444 511 34,000 60 Climbing FlightAware ADS-B (EDLW / DTM)
12:56PM 54.3533 7.7140 216° Southwest 437 503 34,000  Level FlightAware ADS-B (EDDH / HAM)
12:57PM 54.2798 7.6235 216° Southwest 435 501 34,000  Level FlightAware ADS-B (EDLW / DTM)
12:57PM 54.2296 7.5614 216° Southwest 436 502 34,000  Level FlightAware ADS-B (EDDH / HAM)
12:58PM 54.1822 7.5037 216° Southwest 436 502 34,000  Level FlightAware ADS-B (EDDH / HAM)
12:59PM 54.1360 7.4479 215° Southwest 437 503 34,000  Level FlightAware ADS-B (EDDH / HAM)
12:59PM 54.0689 7.3681 215° Southwest 438 504 34,000  Level FlightAware ADS-B (EDLW / DTM)
01:00PM 54.0294 7.3202 215° Southwest 438 504 34,000 -180 Level FlightAware ADS-B (EDLW / DTM)
01:00PM 53.9359 7.2071 215° Southwest 439 505 33,800 -600 Descending FlightAware ADS-B (EDDH / HAM)
01:01PM 53.8781 7.1377 215° Southwest 441 507 33,200 -1,140 Descending FlightAware ADS-B (EDLW / DTM)
01:02PM 53.8279 7.0779 215° Southwest 443 510 32,600 -1,500 Descending FlightAware ADS-B (EDLW / DTM)
01:02PM 53.7642 7.0021 215° Southwest 446 513 31,600 -1,800 Descending FlightAware ADS-B (EDLW / DTM)
01:03PM 53.7167 6.9461 215° Southwest 445 512 30,600 -1,740 Descending FlightAware ADS-B (EDLW / DTM)
01:03PM 53.6551 6.8729 215° Southwest 439 505 29,700 -1,740 Descending FlightAware ADS-B (EDDH / HAM)
01:04PM 53.6040 6.8135 215° Southwest 447 514 28,800 -1,800 Descending FlightAware ADS-B (EDDH / HAM)
01:04PM 53.5516 6.7507 215° Southwest 417 480 27,900 -1,740 Descending FlightAware UK
01:05PM 53.5277 6.7234 215° Southwest 454 522 27,500 -1,800 Descending FlightAware ADS-B (EDDH / HAM)
01:05PM 53.4759 6.6638 215° Southwest 448 516 26,600 -1,860 Descending FlightAware ADS-B (EDDH / HAM)
01:06PM 53.4109 6.5872 215° Southwest 442 509 25,400 -1,980 Descending FlightAware ADS-B (EDLW / DTM)
01:06PM 53.3722 6.5427 215° Southwest 435 501 24,400 -1,860 Descending FlightAware ADS-B (EDLW / DTM)
01:07PM 53.3091 6.4702 215° Southwest 429 494 23,500 -1,740 Descending FlightAware ADS-B (EDLW / DTM)
01:07PM 53.2562 6.4083 215° Southwest 423 487 22,600 -1,800 Descending FlightAware ADS-B (EDLW / DTM)
01:08PM 53.2031 6.3479 215° Southwest 415 478 21,600 -1,800 Descending FlightAware ADS-B (EDLW / DTM)
01:08PM 53.1454 6.2815 214° Southwest 412 474 20,400 -1,800 Descending FlightAware ADS-B (EDLW / DTM)
01:09PM 53.0866 6.2158 215° Southwest 403 464 19,400 -1,800 Descending FlightAware ADS-B (EDDH / HAM)
01:10PM 53.0375 6.1586 214° Southwest 395 455 18,400 -1,980 Descending FlightAware ADS-B (EDDH / HAM)
01:10PM 52.9845 6.0979 217° Southwest 387 445 17,200 -1,980 Descending FlightAware ADS-B (EDLW / DTM)
01:11PM 52.9254 6.0261 215° Southwest 381 438 15,900 -1,920 Descending FlightAware ADS-B (EDLW / DTM)
01:12PM 52.8640 5.9589 214° Southwest 375 432 14,600 -1,740 Descending FlightAware ADS-B (EDLW / DTM)
01:12PM 52.8162 5.9055 214° Southwest 365 420 13,700 -2,040 Descending FlightAware ADS-B (EDLW / DTM)
01:13PM 52.7613 5.8449 214° Southwest 363 418 12,100 -1,620 Descending FlightAware ADS-B (EHRD / RTM)
01:14PM 52.6595 5.7318 214° Southwest 328 377 10,400 -1,080 Descending FlightAware ADS-B (EHAM / AMS)
01:15PM 52.6068 5.6737 214° Southwest 295 339 10,000 -720 Descending FlightAware ADS-B (EDLW / DTM)
01:15PM 52.5867 5.6518 214° Southwest 292 336 9,800 -1,200 Descending FlightAware ADS-B (EDLW / DTM)
01:16PM 52.5491 5.6110 214° Southwest 308 354 9,000 -960 Descending FlightAware ADS-B (EHAM / AMS)
01:16PM 52.5872 5.6530 214° Southwest 275 316 8,900 -900 Descending FlightAware ADS-B (EHRD / RTM)
01:17PM 52.5010 5.5417 240° Southwest 278 320 8,100 -1,260 Descending FlightAware ADS-B (EHRD / RTM)
01:17PM 52.4728 5.4656 239° Southwest 277 319 7,400 -1,320 Descending FlightAware ADS-B (EHRD / RTM)
01:18PM 52.4622 5.4377 226° Southwest 266 306 6,900 -1,440 Descending FlightAware ADS-B (EHAM / AMS)
01:18PM 52.4418 5.4027 225° Southwest 268 308 6,500 -1,320 Descending FlightAware ADS-B (EHRD / RTM)
01:18PM 52.4284 5.3812 225° Southwest 267 307 6,200 -1,320 Descending FlightAware ADS-B (EHAM / AMS)
01:18PM 52.4150 5.3598 225° Southwest 267 307 5,800 -1,440 Descending FlightAware ADS-B (EHAM / AMS)
01:19PM 52.3821 5.3057 225° Southwest 265 305 5,000 -1,320 Descending FlightAware ADS-B (EHAM / AMS)
01:19PM 52.3555 5.2620 225° Southwest 261 300 4,400 -1,020 Descending FlightAware ADS-B (EHAM / AMS)
01:20PM 52.3314 5.2235 225° Southwest 255 293 4,000 -540 Descending FlightAware ADS-B (EHAM / AMS)
01:20PM 52.3167 5.1994 224° Southwest 250 288 4,000  Level FlightAware ADS-B (EHAM / AMS)
01:21PM 52.2974 5.1691 224° Southwest 248 285 4,000  Level FlightAware ADS-B (EHAM / AMS)
01:21PM 52.2674 5.1196 233° Southwest 250 288 4,000 -300 Level FlightAware ADS-B (EHAM / AMS)
01:22PM 52.2611 5.1046 235° Southwest 245 282 3,800 -600 Descending FlightAware ADS-B (EHAM / AMS)
01:22PM 52.2497 5.0780 235° Southwest 231 266 3,700 -720 Descending FlightAware ADS-B (EHAM / AMS)
01:22PM 52.2377 5.0510 235° Southwest 219 252 3,300 -1,200 Descending FlightAware ADS-B (EHAM / AMS)
01:22PM 52.2237 5.0184 235° Southwest 212 244 2,900 -1,200 Descending FlightAware ADS-B (EHRD / RTM)
01:23PM 52.2069 4.9792 235° Southwest 210 242 2,500 -960 Descending FlightAware ADS-B (EHRD / RTM)
01:23PM 52.2005 4.9515 268° West 212 244 2,100 -600 Descending FlightAware ADS-B (EHAM / AMS)
01:24PM 52.2069 4.9792 268° West 178 205 1,700 -480 Descending FlightAware ADS-B (EHRD / RTM)
01:25PM 52.1983 4.8328 268° West 169 194 1,500 -600 Descending FlightAware ADS-B (EHRD / RTM)
01:25PM 52.1982 4.8276 268° West 170 196 1,200 -300 Descending FlightAware ADS-B (EHRD / RTM)
01:26PM 52.2116 4.7781 332° Northwest 149 171 1,300 1,080 Climbing FlightAware ADS-B (EHRD / RTM)
01:26PM 52.2147 4.7758 343° North 157 181 1,600  Climbing FlightAware ADS-B (EHGR / GLZ)
01:32PM 52.3051 4.7680 311° West 76 87 1,600  Level FlightAware ADS-B (EHGR / GLZ)